Time;durP1;ratioP1;P1;durP2;ratioP2;P2;SDS_P1;SDS_P2;PMS_P1;PMS_P2;Temp;Humidity;BMP_temperature;BMP_pressure;BME280_temperature;BME280_humidity;BME280_pressure;Samples;Min_cycle;Max_cycle;Signal;HPM_P1;HPM_P2
2022/06/09 00:00:19;;;;;;;19.73;6.90;;;;;;;12.81;100.00;100710.31;5117528;28;20137;-84
2022/06/09 00:02:49;;;;;;;21.17;6.97;;;;;;;12.81;100.00;100713.03;5117279;28;20035;-83
2022/06/09 00:05:15;;;;;;;22.83;7.20;;;;;;;12.79;100.00;100710.56;5117363;28;20502;-83
2022/06/09 00:07:42;;;;;;;20.03;7.47;;;;;;;12.77;100.00;100712.69;5117859;28;20035;-84
2022/06/09 00:10:16;;;;;;;18.57;7.03;;;;;;;12.73;100.00;100710.66;5117192;28;20470;-84
2022/06/09 00:12:42;;;;;;;17.42;7.40;;;;;;;12.77;100.00;100722.72;5117512;28;20028;-85
2022/06/09 00:15:10;;;;;;;21.97;7.20;;;;;;;12.71;100.00;100716.31;5117031;28;20024;-84
2022/06/09 00:17:37;;;;;;;21.50;7.73;;;;;;;12.73;100.00;100729.66;5116747;28;20073;-83
2022/06/09 00:20:04;;;;;;;19.57;7.50;;;;;;;12.74;100.00;100729.47;5116593;28;20524;-83
2022/06/09 00:22:29;;;;;;;22.90;7.33;;;;;;;12.72;100.00;100726.13;5116660;28;20026;-83
2022/06/09 00:25:00;;;;;;;20.93;7.17;;;;;;;12.68;100.00;100722.22;5116472;28;20027;-83
2022/06/09 00:27:26;;;;;;;19.87;7.33;;;;;;;12.73;100.00;100725.09;5116023;28;20031;-83
2022/06/09 00:29:51;;;;;;;19.97;6.87;;;;;;;12.73;100.00;100732.41;5116702;28;20511;-84
2022/06/09 00:32:16;;;;;;;20.33;7.47;;;;;;;12.72;100.00;100728.84;5117038;28;20028;-83
2022/06/09 00:34:42;;;;;;;19.73;7.33;;;;;;;12.72;100.00;100720.69;5116946;28;20016;-83
2022/06/09 00:37:07;;;;;;;18.37;6.63;;;;;;;12.70;100.00;100720.13;5115641;28;20633;-84
2022/06/09 00:39:33;;;;;;;18.83;6.97;;;;;;;12.75;100.00;100722.13;5116449;28;20096;-83
2022/06/09 00:41:58;;;;;;;19.43;7.20;;;;;;;12.71;100.00;100723.66;5116527;28;20107;-83
2022/06/09 00:44:27;;;;;;;17.87;7.43;;;;;;;12.73;100.00;100726.94;5116447;28;20034;-83
2022/06/09 00:47:01;;;;;;;24.60;7.03;;;;;;;12.71;100.00;100724.47;5115571;28;20027;-83
2022/06/09 00:49:49;;;;;;;21.83;7.50;;;;;;;12.66;100.00;100713.44;5110166;28;20028;-83
2022/06/09 00:52:18;;;;;;;23.03;6.97;;;;;;;12.69;100.00;100729.31;5094830;28;20036;-83
2022/06/09 00:54:50;;;;;;;23.27;7.97;;;;;;;12.64;100.00;100721.84;5093711;28;20454;-83
2022/06/09 00:57:21;;;;;;;22.93;7.03;;;;;;;12.69;100.00;100744.78;5095707;28;20035;-83
2022/06/09 00:59:51;;;;;;;22.73;7.30;;;;;;;12.64;100.00;100735.44;5094948;28;20024;-83
2022/06/09 01:02:19;;;;;;;21.97;7.17;;;;;;;12.60;100.00;100742.38;5095993;28;20020;-83
2022/06/09 01:04:51;;;;;;;23.47;8.00;;;;;;;12.55;100.00;100734.09;5096250;28;20372;-83
2022/06/09 01:07:26;;;;;;;23.40;7.17;;;;;;;12.58;100.00;100739.06;5096280;28;20114;-83
2022/06/09 01:09:52;;;;;;;25.60;7.30;;;;;;;12.58;100.00;100744.50;5095547;28;20085;-83
2022/06/09 01:12:42;;;;;;;20.40;7.87;;;;;;;12.49;100.00;100724.94;5095272;28;20479;-83
2022/06/09 01:15:19;;;;;;;23.40;8.20;;;;;;;12.49;100.00;100737.72;5093592;28;20024;-83
2022/06/09 01:18:09;;;;;;;26.43;8.10;;;;;;;12.51;100.00;100738.31;5110719;28;20024;-83
2022/06/09 01:20:52;;;;;;;26.67;8.17;;;;;;;12.46;100.00;100730.84;5115661;28;20031;-83
2022/06/09 01:23:54;;;;;;;22.33;7.60;;;;;;;12.49;100.00;100746.69;5116160;28;20019;-83
2022/06/09 01:26:56;;;;;;;24.90;8.40;;;;;;;12.48;100.00;100746.91;5114629;28;20106;-83
2022/06/09 01:29:38;;;;;;;23.27;7.80;;;;;;;12.42;100.00;100742.41;5115244;28;20019;-83
2022/06/09 01:32:12;;;;;;;23.57;8.43;;;;;;;12.44;100.00;100757.44;5115223;28;20117;-83
2022/06/09 01:34:58;;;;;;;23.20;8.57;;;;;;;12.41;100.00;100751.59;5114426;28;20023;-83
2022/06/09 01:37:29;;;;;;;23.13;8.23;;;;;;;12.38;100.00;100758.31;5115515;28;20148;-83
2022/06/09 01:39:56;;;;;;;26.77;8.53;;;;;;;12.38;100.00;100752.06;5102604;28;20475;-84
2022/06/09 01:42:35;;;;;;;23.27;8.87;;;;;;;12.38;100.00;100762.94;5094248;28;20020;-84
2022/06/09 01:45:12;;;;;;;28.67;9.30;;;;;;;12.28;100.00;100750.69;5094579;28;20028;-84
2022/06/09 01:47:41;;;;;;;23.87;8.47;;;;;;;12.32;100.00;100760.06;5126373;27;20351;-83
2022/06/09 01:50:12;;;;;;;24.33;8.97;;;;;;;12.33;100.00;100759.00;5114550;28;20027;-84
2022/06/09 01:52:41;;;;;;;29.73;9.93;;;;;;;12.30;100.00;100756.72;5114072;28;20339;-84
2022/06/09 01:55:09;;;;;;;26.13;9.67;;;;;;;12.37;100.00;100763.97;5115197;28;20031;-84
2022/06/09 01:57:38;;;;;;;30.10;9.70;;;;;;;12.33;100.00;100759.00;5113881;28;20027;-83
2022/06/09 02:00:09;;;;;;;27.27;10.23;;;;;;;12.36;100.00;100765.84;5114670;28;20023;-83
2022/06/09 02:02:42;;;;;;;28.57;9.83;;;;;;;12.35;100.00;100764.22;5115010;28;20024;-85
2022/06/09 02:05:20;;;;;;;28.27;10.80;;;;;;;12.38;100.00;100766.47;5114180;28;20035;-83
2022/06/09 02:07:48;;;;;;;34.30;10.53;;;;;;;12.23;100.00;100753.25;5113839;28;20031;-84
2022/06/09 02:10:22;;;;;;;25.77;9.80;;;;;;;12.36;100.00;100779.44;5114144;28;20024;-84
2022/06/09 02:12:50;;;;;;;27.75;9.85;;;;;;;12.33;100.00;100774.47;5114021;28;20471;-84
2022/06/09 02:15:22;;;;;;;26.93;9.67;;;;;;;12.28;100.00;100780.59;5113360;28;20027;-84
2022/06/09 02:17:49;;;;;;;29.50;10.20;;;;;;;12.30;100.00;100778.44;5105521;28;20031;-83
2022/06/09 02:20:18;;;;;;;29.17;9.50;;;;;;;12.30;100.00;100786.59;5094715;28;20034;-84
2022/06/09 02:22:43;;;;;;;27.90;10.27;;;;;;;12.29;100.00;100790.41;5099817;28;20479;-84
2022/06/09 02:25:09;;;;;;;29.30;10.60;;;;;;;12.27;100.00;100787.06;5111851;28;20027;-83
2022/06/09 02:27:34;;;;;;;34.13;11.27;;;;;;;12.27;100.00;100789.78;5106640;28;20105;-84
2022/06/09 02:29:59;;;;;;;29.03;10.30;;;;;;;12.27;100.00;100792.50;5114423;28;20026;-84
2022/06/09 02:32:25;;;;;;;29.13;10.37;;;;;;;12.25;100.00;100791.06;5113908;28;20055;-83
2022/06/09 02:34:51;;;;;;;25.97;10.13;;;;;;;12.21;100.00;100801.56;5113418;28;20031;-82
2022/06/09 02:37:16;;;;;;;24.63;10.63;;;;;;;12.27;100.00;100803.34;5111842;28;20046;-83
2022/06/09 02:39:41;;;;;;;29.30;10.93;;;;;;;12.26;100.00;100801.69;5114589;28;20031;-83
2022/06/09 02:42:07;;;;;;;26.90;10.63;;;;;;;12.15;100.00;100791.56;5112315;28;20035;-84
2022/06/09 02:44:33;;;;;;;32.80;11.43;;;;;;;12.24;100.00;100803.81;5112323;28;20022;-84
2022/06/09 02:46:59;;;;;;;29.83;11.13;;;;;;;12.28;100.00;100818.63;5093648;28;20028;-84
2022/06/09 02:49:24;;;;;;;36.23;11.13;;;;;;;12.29;100.00;100816.72;5093939;28;20028;-84
2022/06/09 02:51:49;;;;;;;31.33;10.83;;;;;;;12.30;100.00;100827.34;5100906;28;20367;-84
2022/06/09 02:54:15;;;;;;;35.30;10.83;;;;;;;12.24;100.00;100809.25;5117621;28;20035;-83
2022/06/09 02:56:42;;;;;;;32.77;11.07;;;;;;;12.31;100.00;100823.59;5117588;28;20042;-84
2022/06/09 02:59:07;;;;;;;35.30;11.80;;;;;;;12.28;100.00;100812.34;5118562;28;20084;-83
2022/06/09 03:01:33;;;;;;;30.03;11.30;;;;;;;12.30;100.00;100816.50;5118514;28;20031;-84
2022/06/09 03:03:58;;;;;;;30.53;12.10;;;;;;;12.30;100.00;100826.53;5118279;28;20051;-83
2022/06/09 03:06:24;;;;;;;31.40;11.10;;;;;;;12.35;100.00;100837.56;5118382;28;20043;-83
2022/06/09 03:08:49;;;;;;;34.23;11.70;;;;;;;12.30;100.00;100821.09;5097476;28;20421;-84
2022/06/09 03:11:15;;;;;;;32.03;10.53;;;;;;;12.31;100.00;100837.19;5106251;28;20046;-83
2022/06/09 03:13:42;;;;;;;32.93;11.40;;;;;;;12.33;100.00;100835.09;5098558;28;20057;-83
2022/06/09 03:16:09;;;;;;;33.40;11.17;;;;;;;12.32;100.00;100841.56;5118066;28;20161;-83
2022/06/09 03:18:36;;;;;;;29.93;11.23;;;;;;;12.30;100.00;100845.56;5118031;27;20114;-84
2022/06/09 03:21:01;;;;;;;35.93;11.03;;;;;;;12.31;100.00;100848.03;5118109;28;20059;-83
2022/06/09 03:23:27;;;;;;;29.13;11.10;;;;;;;12.35;100.00;100861.16;5117364;28;20055;-83
2022/06/09 03:25:52;;;;;;;30.97;10.57;;;;;;;12.35;100.00;100864.75;5118055;28;20035;-84
2022/06/09 03:28:18;;;;;;;30.80;10.80;;;;;;;12.36;100.00;100869.09;5117935;28;20031;-83
2022/06/09 03:30:44;;;;;;;31.50;11.07;;;;;;;12.38;100.00;100868.91;5116436;28;20103;-83
2022/06/09 03:33:10;;;;;;;34.30;11.53;;;;;;;12.34;100.00;100871.22;5117061;28;20177;-83
2022/06/09 03:35:36;;;;;;;34.40;11.93;;;;;;;12.36;100.00;100877.25;5108433;28;20421;-83
2022/06/09 03:38:01;;;;;;;34.20;11.43;;;;;;;12.39;100.00;100887.69;5117703;28;20058;-83
2022/06/09 03:40:28;;;;;;;29.67;11.80;;;;;;;12.39;100.00;100881.41;5117651;28;20370;-84
2022/06/09 03:42:55;;;;;;;32.70;11.30;;;;;;;12.38;100.00;100887.91;5116695;28;20423;-84
2022/06/09 03:45:21;;;;;;;30.97;10.50;;;;;;;12.42;100.00;100898.09;5117364;28;20038;-84
2022/06/09 03:47:47;;;;;;;31.83;11.23;;;;;;;12.46;100.00;100904.75;5117542;28;20106;-84
2022/06/09 03:50:19;;;;;;;33.47;11.40;;;;;;;12.44;100.00;100903.31;5116667;28;20031;-83
2022/06/09 03:52:45;;;;;;;32.90;11.10;;;;;;;12.41;100.00;100898.34;5116522;28;20047;-82
2022/06/09 03:55:10;;;;;;;28.37;11.33;;;;;;;12.40;100.00;100893.94;5117727;28;20023;-82
2022/06/09 03:57:35;;;;;;;32.07;11.80;;;;;;;12.32;100.00;100890.47;5117248;28;20351;-83
2022/06/09 04:00:01;;;;;;;32.20;11.87;;;;;;;12.37;100.00;100910.69;5116723;28;20103;-83
2022/06/09 04:02:27;;;;;;;30.23;11.60;;;;;;;12.26;100.00;100894.06;5117547;28;20027;-84
2022/06/09 04:04:53;;;;;;;34.97;11.00;;;;;;;12.31;100.00;100923.28;5116592;28;20027;-83
2022/06/09 04:07:19;;;;;;;28.93;10.90;;;;;;;12.28;100.00;100921.84;5116807;28;20028;-83
2022/06/09 04:09:44;;;;;;;31.40;11.27;;;;;;;12.26;100.00;100921.22;5114993;28;20118;-83
2022/06/09 04:12:11;;;;;;;32.63;11.17;;;;;;;12.24;100.00;100923.34;5116281;28;20115;-83
2022/06/09 04:14:36;;;;;;;31.53;10.80;;;;;;;12.20;100.00;100926.69;5117567;28;20027;-83
2022/06/09 04:17:02;;;;;;;31.80;11.47;;;;;;;12.18;100.00;100940.50;5116208;28;20478;-83
2022/06/09 04:19:27;;;;;;;31.07;11.27;;;;;;;12.06;100.00;100917.84;5115689;28;20057;-83
2022/06/09 04:21:53;;;;;;;28.60;11.30;;;;;;;12.09;100.00;100928.25;5116792;28;20030;-83
2022/06/09 04:24:18;;;;;;;28.27;11.33;;;;;;;12.12;100.00;100933.25;5106128;28;20031;-83
2022/06/09 04:26:44;;;;;;;35.20;11.70;;;;;;;12.14;100.00;100942.00;5096587;28;20032;-83
2022/06/09 04:29:11;;;;;;;30.03;11.30;;;;;;;12.01;100.00;100926.66;5095258;28;20442;-83
2022/06/09 04:31:37;;;;;;;30.37;10.57;;;;;;;12.10;100.00;100941.63;5096082;28;20024;-83
2022/06/09 04:34:03;;;;;;;30.37;11.17;;;;;;;12.12;100.00;100942.22;5096363;28;20020;-83
2022/06/09 04:36:28;;;;;;;29.83;11.37;;;;;;;12.10;100.00;100948.94;5112681;28;20483;-84
2022/06/09 04:38:54;;;;;;;32.97;11.70;;;;;;;12.02;100.00;100932.91;5115268;28;20134;-84
2022/06/09 04:41:19;;;;;;;28.23;11.13;;;;;;;12.12;100.00;100949.56;5116316;28;20107;-84
2022/06/09 04:43:46;;;;;;;33.33;12.10;;;;;;;12.09;100.00;100950.81;5116406;28;20491;-83
2022/06/09 04:46:14;;;;;;;33.60;10.67;;;;;;;12.15;100.00;100949.09;5114905;28;20023;-83
2022/06/09 04:48:40;;;;;;;29.60;11.40;;;;;;;12.10;100.00;100951.66;5116697;28;20047;-83
2022/06/09 04:51:07;;;;;;;28.67;10.27;;;;;;;12.14;100.00;100958.31;5116337;28;20053;-83
2022/06/09 04:53:33;;;;;;;26.37;11.00;;;;;;;12.16;100.00;100961.66;5115106;28;20072;-84
2022/06/09 04:55:59;;;;;;;31.63;11.53;;;;;;;12.16;100.00;100964.38;5115613;28;20118;-84
2022/06/09 04:58:24;;;;;;;30.67;11.37;;;;;;;12.14;100.00;100970.00;5116127;28;20404;-83
2022/06/09 05:00:49;;;;;;;28.90;11.93;;;;;;;12.15;100.00;100976.28;5114411;28;20046;-83
2022/06/09 05:03:15;;;;;;;30.23;11.37;;;;;;;12.20;100.00;100979.16;5113573;28;20031;-83
2022/06/09 05:05:44;;;;;;;29.70;12.13;;;;;;;12.14;100.00;100980.88;5114752;28;20025;-83
2022/06/09 05:08:11;;;;;;;31.17;11.53;;;;;;;12.18;100.00;100986.69;5115780;28;20079;-83
2022/06/09 05:10:37;;;;;;;32.27;11.47;;;;;;;12.13;100.00;100979.22;5114096;28;20028;-83
2022/06/09 05:13:05;;;;;;;29.83;11.60;;;;;;;12.13;100.00;100992.78;5116069;28;20031;-83
2022/06/09 05:15:35;;;;;;;30.27;11.70;;;;;;;12.15;100.00;101001.53;5114599;28;20024;-83
2022/06/09 05:18:00;;;;;;;32.30;11.53;;;;;;;12.20;100.00;101010.91;5103746;28;20093;-83
2022/06/09 05:20:26;;;;;;;30.53;12.00;;;;;;;12.26;100.00;101010.06;5077115;28;20028;-83
2022/06/09 05:22:51;;;;;;;34.23;12.03;;;;;;;12.29;100.00;101010.47;5095657;28;20043;-83
2022/06/09 05:25:16;;;;;;;31.97;12.60;;;;;;;12.35;100.00;101018.75;5077292;28;20054;-83
2022/06/09 05:27:42;;;;;;;32.47;13.77;;;;;;;12.34;100.00;101009.78;5095367;28;20028;-83
2022/06/09 05:30:12;;;;;;;34.10;12.83;;;;;;;12.54;100.00;101019.66;5094220;28;20024;-85
2022/06/09 05:32:38;;;;;;;26.50;12.37;;;;;;;12.56;100.00;101025.72;5095695;28;20455;-84
2022/06/09 05:35:05;;;;;;;28.53;11.83;;;;;;;12.60;100.00;101025.06;5095155;28;20077;-81
2022/06/09 05:44:50;;;;;;;27.53;11.73;;;;;;;12.69;100.00;101022.91;5094557;28;20044;-81
2022/06/09 05:45:43;;;;;;;25.17;10.90;;;;;;;12.92;100.00;101046.78;5102483;28;20173;-82
2022/06/09 05:48:09;;;;;;;25.70;9.93;;;;;;;12.93;100.00;101043.00;5090118;28;20039;-83
2022/06/09 05:50:35;;;;;;;26.63;9.97;;;;;;;12.96;100.00;101053.44;5093845;28;20111;-83
2022/06/09 05:53:00;;;;;;;26.53;9.53;;;;;;;13.07;100.00;101062.75;5092389;28;20043;-84
2022/06/09 05:55:26;;;;;;;25.03;9.43;;;;;;;13.10;100.00;101064.19;5093655;28;20036;-84
2022/06/09 05:57:51;;;;;;;22.27;9.67;;;;;;;13.12;100.00;101056.63;5094060;28;20088;-84
2022/06/09 06:00:17;;;;;;;26.67;9.50;;;;;;;13.17;100.00;101064.97;5093054;28;20353;-84
2022/06/09 06:02:42;;;;;;;21.10;8.20;;;;;;;13.20;100.00;101075.38;5093418;28;20076;-83
2022/06/09 06:06:33;;;;;;;22.50;8.53;;;;;;;13.22;100.00;101075.16;5093293;28;20485;-83
2022/06/09 06:07:53;;;;;;;22.17;8.30;;;;;;;13.29;100.00;101084.94;5093932;28;20400;-83
2022/06/09 06:10:18;;;;;;;22.40;8.33;;;;;;;13.31;100.00;101081.97;5093276;28;20043;-83
2022/06/09 06:12:44;;;;;;;18.63;7.43;;;;;;;13.38;100.00;101095.56;5094203;28;20040;-83
2022/06/09 06:15:09;;;;;;;20.57;7.27;;;;;;;13.41;100.00;101097.81;5093788;28;20567;-83
2022/06/09 06:17:35;;;;;;;18.30;7.50;;;;;;;13.46;100.00;101103.44;5093466;28;20580;-83
2022/06/09 06:20:01;;;;;;;19.03;7.30;;;;;;;13.50;100.00;101107.38;5106126;28;20066;-83
2022/06/09 06:22:26;;;;;;;15.23;6.30;;;;;;;13.48;100.00;101109.50;5096877;28;20047;-83
2022/06/09 06:24:52;;;;;;;15.87;7.27;;;;;;;13.56;100.00;101111.06;5112216;28;20031;-83
2022/06/09 06:27:17;;;;;;;15.73;6.60;;;;;;;13.58;100.00;101115.25;5101605;28;20042;-83
2022/06/09 06:29:42;;;;;;;19.90;6.93;;;;;;;13.63;100.00;101117.31;5105526;28;20107;-82
2022/06/09 06:32:08;;;;;;;17.53;6.00;;;;;;;13.63;100.00;101122.75;5111045;28;20062;-83
2022/06/09 06:34:33;;;;;;;15.83;5.67;;;;;;;13.60;100.00;101118.59;5104349;28;20027;-84
2022/06/09 06:36:58;;;;;;;12.80;5.10;;;;;;;13.60;100.00;101131.34;5092388;28;20096;-84
2022/06/09 06:39:25;;;;;;;14.33;5.23;;;;;;;13.46;100.00;101109.72;5090805;28;20175;-83
2022/06/09 06:41:50;;;;;;;17.00;6.00;;;;;;;13.58;100.00;101137.03;5091522;28;20100;-84
2022/06/09 06:44:16;;;;;;;14.43;4.80;;;;;;;13.60;100.00;101150.41;5091412;28;20126;-84
2022/06/09 06:46:41;;;;;;;11.80;5.07;;;;;;;13.54;100.00;101135.81;5092381;28;20535;-84
2022/06/09 06:49:08;;;;;;;17.00;5.80;;;;;;;13.56;100.00;101154.63;5089218;28;20424;-84
2022/06/09 06:51:35;;;;;;;14.90;5.70;;;;;;;13.57;100.00;101157.16;5089746;28;20193;-84
2022/06/09 06:54:04;;;;;;;14.57;5.53;;;;;;;13.54;100.00;101163.03;5091262;28;20039;-84
2022/06/09 06:56:31;;;;;;;16.93;6.10;;;;;;;13.57;100.00;101161.75;5090471;28;20209;-83
2022/06/09 06:58:56;;;;;;;15.30;5.90;;;;;;;13.56;100.00;101166.38;5090934;28;21361;-83
2022/06/09 07:01:21;;;;;;;13.60;5.60;;;;;;;13.59;100.00;101165.91;5089883;28;20044;-83
2022/06/09 07:03:47;;;;;;;17.13;5.87;;;;;;;13.60;100.00;101167.59;5087608;28;21722;-84
2022/06/09 07:06:12;;;;;;;18.53;6.80;;;;;;;13.61;100.00;101172.00;5091712;28;20046;-83
2022/06/09 07:08:38;;;;;;;17.53;6.40;;;;;;;13.60;100.00;101161.28;5076528;28;21746;-84
2022/06/09 07:11:05;;;;;;;16.70;6.90;;;;;;;13.70;100.00;101182.59;5089108;28;20058;-83
2022/06/09 07:13:30;;;;;;;18.03;8.03;;;;;;;13.67;100.00;101187.41;5091169;28;20036;-84
2022/06/09 07:15:56;;;;;;;18.30;7.20;;;;;;;13.71;100.00;101190.53;5089205;28;20089;-84
2022/06/09 07:18:21;;;;;;;18.40;7.77;;;;;;;13.74;100.00;101191.97;5085231;28;20066;-84
2022/06/09 07:20:46;;;;;;;18.20;6.83;;;;;;;13.76;100.00;101193.41;5090153;28;20047;-83
2022/06/09 07:23:12;;;;;;;10.23;5.70;;;;;;;13.75;100.00;101194.47;5091622;28;20467;-84
2022/06/09 07:25:38;;;;;;;16.27;6.30;;;;;;;13.79;100.00;101203.84;5092477;28;20493;-83
2022/06/09 07:28:04;;;;;;;11.50;5.70;;;;;;;13.85;100.00;101208.38;5092788;28;20367;-84
2022/06/09 07:30:30;;;;;;;12.60;4.67;;;;;;;13.93;100.00;101209.16;5089848;28;20715;-83
2022/06/09 07:32:56;;;;;;;6.23;4.00;;;;;;;13.93;100.00;101215.44;5090648;28;20031;-83
2022/06/09 07:35:26;;;;;;;6.73;3.60;;;;;;;13.96;98.98;101214.97;5090923;28;20166;-83
2022/06/09 07:37:53;;;;;;;6.83;3.70;;;;;;;13.99;99.52;101209.09;5090067;28;20079;-85
2022/06/09 07:40:19;;;;;;;7.73;3.43;;;;;;;14.06;99.03;101209.03;5091148;28;20465;-84
2022/06/09 07:42:44;;;;;;;7.23;3.60;;;;;;;14.18;99.53;101211.81;5094998;28;20109;-85
2022/06/09 07:45:11;;;;;;;6.60;3.80;;;;;;;14.23;99.67;101205.72;5113523;27;20023;-84
2022/06/09 07:47:37;;;;;;;5.53;3.50;;;;;;;14.34;98.99;101207.66;5094196;28;20035;-85
2022/06/09 07:50:04;;;;;;;8.33;3.63;;;;;;;14.50;97.61;101219.84;5094127;28;20039;-85
2022/06/09 07:52:30;;;;;;;6.20;3.20;;;;;;;14.64;97.78;101212.34;5091264;28;20028;-84
2022/06/09 07:54:56;;;;;;;4.97;3.17;;;;;;;14.90;98.03;101222.06;5100586;28;20360;-85
2022/06/09 07:57:22;;;;;;;6.30;2.70;;;;;;;15.08;94.12;101220.34;5115303;28;20115;-83
2022/06/09 07:59:47;;;;;;;3.57;2.20;;;;;;;15.30;91.60;101220.63;5102468;28;20474;-83
2022/06/09 08:02:13;;;;;;;4.07;2.60;;;;;;;15.58;91.47;101219.97;5094825;28;20054;-83
2022/06/09 08:04:38;;;;;;;4.13;2.30;;;;;;;15.67;90.08;101223.19;5094609;27;20759;-83
2022/06/09 08:07:04;;;;;;;4.17;2.20;;;;;;;15.87;90.04;101217.41;5095095;28;20032;-85
2022/06/09 08:09:30;;;;;;;5.63;2.90;;;;;;;16.02;88.07;101234.16;5095575;28;20059;-84
2022/06/09 08:11:56;;;;;;;6.63;2.73;;;;;;;16.02;86.04;101225.94;5094810;28;20031;-84
2022/06/09 08:14:21;;;;;;;5.83;1.90;;;;;;;15.96;84.63;101232.34;5094548;28;20055;-84
2022/06/09 08:16:46;;;;;;;4.90;1.80;;;;;;;16.00;83.41;101243.66;5095818;28;20630;-85
2022/06/09 08:19:12;;;;;;;4.07;1.30;;;;;;;15.91;78.88;101245.06;5096651;28;20028;-83
2022/06/09 08:21:37;;;;;;;2.40;1.40;;;;;;;15.89;79.30;101258.97;5107112;28;20063;-85
2022/06/09 08:24:04;;;;;;;4.07;1.27;;;;;;;15.84;78.68;101248.78;5112522;28;20024;-83
2022/06/09 08:26:29;;;;;;;2.33;1.20;;;;;;;15.90;76.81;101268.84;5109486;28;20034;-82
2022/06/09 08:28:55;;;;;;;2.07;1.23;;;;;;;15.93;77.05;101264.81;5103475;28;20024;-82
2022/06/09 08:31:20;;;;;;;3.27;1.20;;;;;;;16.01;77.28;101270.75;5111033;28;20051;-83
2022/06/09 08:33:46;;;;;;;2.50;1.50;;;;;;;16.29;79.31;101266.47;5114507;28;20473;-83
2022/06/09 08:36:11;;;;;;;2.07;1.20;;;;;;;16.33;75.98;101275.00;5112831;28;20145;-84
2022/06/09 08:38:38;;;;;;;1.40;1.30;;;;;;;16.24;76.81;101274.53;5107270;28;20047;-83
2022/06/09 08:41:19;;;;;;;1.60;1.20;;;;;;;16.29;77.43;101287.47;5082092;28;20023;-84
2022/06/09 08:44:15;;;;;;;3.17;1.00;;;;;;;16.41;77.60;101292.94;5112520;28;20055;-85
2022/06/09 08:47:06;;;;;;;1.07;0.97;;;;;;;16.27;77.52;101275.97;5057751;28;20126;-85
2022/06/09 08:49:38;;;;;;;2.13;1.03;;;;;;;16.20;74.79;101306.97;5115124;28;20069;-83
2022/06/09 08:52:10;;;;;;;3.17;1.13;;;;;;;16.22;78.57;101320.41;5113736;28;20112;-84
2022/06/09 08:54:37;;;;;;;3.00;1.33;;;;;;;16.06;75.71;101318.38;5095312;28;20031;-85
2022/06/09 08:57:23;;;;;;;3.57;1.80;;;;;;;15.94;77.90;101321.94;5092283;28;20040;-85
2022/06/09 08:59:56;;;;;;;5.03;2.20;;;;;;;15.90;77.79;101337.16;5088448;28;20470;-84
2022/06/09 09:02:36;;;;;;;4.18;1.77;;;;;;;15.88;77.07;101330.25;5086022;28;20383;-85
2022/06/09 09:05:14;;;;;;;4.87;2.00;;;;;;;15.73;78.05;101336.97;5085224;28;20023;-84
2022/06/09 09:07:45;;;;;;;2.60;1.90;;;;;;;15.71;80.38;101341.84;5085344;28;20063;-86
2022/06/09 09:10:19;;;;;;;3.93;2.17;;;;;;;15.59;79.54;101336.34;5085479;28;20504;-84
2022/06/09 09:13:09;;;;;;;5.25;2.53;;;;;;;15.59;80.66;101343.72;5086159;28;20043;-85
2022/06/09 09:15:53;;;;;;;5.83;2.90;;;;;;;15.42;80.75;101338.91;5085348;28;20096;-84
2022/06/09 09:18:30;;;;;;;6.97;2.60;;;;;;;15.34;82.23;101345.53;5085563;28;20043;-85
2022/06/09 09:21:07;;;;;;;4.93;2.90;;;;;;;15.32;83.30;101347.66;5086005;28;20386;-85
2022/06/09 09:23:40;;;;;;;8.73;3.33;;;;;;;15.27;84.45;101361.19;5085714;28;20319;-84
2022/06/09 09:26:52;;;;;;;7.30;3.60;;;;;;;15.29;85.84;101361.75;5085745;28;21327;-84
2022/06/09 09:29:29;;;;;;;6.17;3.77;;;;;;;15.09;85.14;101345.66;5058253;28;20039;-84
2022/06/09 09:32:00;;;;;;;7.03;3.57;;;;;;;15.13;85.11;101363.22;5085158;28;20031;-85
2022/06/09 09:34:38;;;;;;;5.73;3.60;;;;;;;15.14;85.48;101364.06;5084852;28;20152;-85
2022/06/09 09:37:26;;;;;;;8.73;3.23;;;;;;;15.12;85.95;101363.47;5085017;28;20036;-84
2022/06/09 09:39:54;;;;;;;6.33;3.50;;;;;;;15.09;85.20;101369.38;5085558;28;20032;-85
2022/06/09 09:42:27;;;;;;;8.40;3.73;;;;;;;15.18;86.45;101374.28;5084617;28;20038;-83
2022/06/09 09:45:11;;;;;;;8.60;3.40;;;;;;;15.35;87.50;101374.50;5086163;28;20054;-83
2022/06/09 09:47:50;;;;;;;6.00;3.07;;;;;;;15.35;83.65;101373.66;5085466;28;20732;-83
2022/06/09 09:50:36;;;;;;;6.17;3.40;;;;;;;15.48;84.56;101372.66;5085341;28;20675;-86
2022/06/09 09:53:19;;;;;;;6.57;3.07;;;;;;;15.56;82.76;101379.66;5084795;28;20146;-83
2022/06/09 09:56:15;;;;;;;7.50;3.63;;;;;;;15.72;84.85;101378.19;5085751;28;20399;-85
2022/06/09 09:58:46;;;;;;;6.00;3.03;;;;;;;15.76;83.40;101384.84;5085050;28;20044;-84
2022/06/09 10:01:17;;;;;;;5.07;3.10;;;;;;;15.83;82.29;101380.16;5084113;28;20040;-84
2022/06/09 10:09:51;;;;;;;8.47;3.60;;;;;;;16.16;82.93;101390.53;5085177;28;20452;-84
2022/06/09 10:12:26;;;;;;;5.33;3.33;;;;;;;16.29;84.26;101384.03;5083494;28;20039;-83
2022/06/09 10:15:10;;;;;;;7.10;3.57;;;;;;;16.47;82.54;101394.00;5084913;28;20035;-83
2022/06/09 10:17:51;;;;;;;8.27;3.75;;;;;;;16.58;81.15;101397.81;5084445;28;20567;-82
2022/06/09 10:20:36;;;;;;;6.63;3.67;;;;;;;16.74;79.48;101392.69;5084872;28;20035;-82
2022/06/09 10:23:16;;;;;;;7.53;3.37;;;;;;;16.81;78.01;101382.44;5084743;28;20051;-83
2022/06/09 10:26:04;;;;;;;7.00;3.53;;;;;;;17.26;80.26;101389.97;5084647;28;20158;-84
2022/06/09 10:28:47;;;;;;;8.07;3.77;;;;;;;17.75;79.19;101399.63;5084520;28;20035;-82
2022/06/09 10:31:12;;;;;;;10.03;3.27;;;;;;;17.79;74.20;101395.31;5082587;28;20024;-85
2022/06/09 10:33:53;;;;;;;9.27;3.47;;;;;;;18.02;73.90;101397.97;5085783;28;20483;-84
2022/06/09 10:36:44;;;;;;;7.97;3.55;;;;;;;18.46;76.12;101405.53;5084579;28;20040;-84
2022/06/09 10:39:33;;;;;;;6.72;3.17;;;;;;;18.90;77.56;101396.56;5084362;28;20097;-82
2022/06/09 10:42:04;;;;;;;8.75;3.00;;;;;;;19.15;71.29;101403.50;5084514;28;20032;-83
2022/06/09 10:44:44;;;;;;;7.13;3.20;;;;;;;19.34;71.03;101393.00;5083888;28;20036;-82
2022/06/09 10:56:01;;;;;;;7.63;3.00;;;;;;;19.46;66.47;101399.19;5084241;28;20047;-83
2022/06/09 10:58:33;;;;;;;5.97;2.75;;;;;;;19.52;69.26;101409.13;5083948;28;20032;-83
2022/06/09 11:00:58;;;;;;;8.18;2.63;;;;;;;19.82;66.08;101418.81;5085518;28;20032;-83
2022/06/09 11:03:30;;;;;;;5.40;2.38;;;;;;;19.56;62.42;101415.75;5091667;28;20273;-82
2022/06/09 11:06:14;;;;;;;5.88;2.20;;;;;;;19.82;64.52;101413.31;5089735;28;20034;-84
2022/06/09 11:08:42;;;;;;;7.30;2.70;;;;;;;20.12;67.24;101413.84;5091071;28;20161;-83
2022/06/09 11:11:13;;;;;;;6.50;2.58;;;;;;;20.11;64.16;101423.19;5091075;28;20027;-85
2022/06/09 11:13:58;;;;;;;6.93;2.72;;;;;;;19.96;64.06;101424.69;5091324;28;20036;-85
2022/06/09 11:16:24;;;;;;;7.65;2.60;;;;;;;19.68;64.37;101421.09;5096293;28;20663;-83
2022/06/09 11:19:20;;;;;;;6.75;2.38;;;;;;;19.55;65.56;101436.06;5094782;28;20067;-82
2022/06/09 11:22:30;;;;;;;5.90;2.53;;;;;;;19.21;66.75;101441.72;5093984;28;20078;-84
2022/06/09 11:25:11;;;;;;;8.60;3.10;;;;;;;18.71;63.90;101427.03;5078874;28;20054;-82
2022/06/09 11:27:54;;;;;;;5.90;2.80;;;;;;;18.70;64.31;101428.13;5094723;28;20070;-83
2022/06/09 11:30:42;;;;;;;7.75;2.60;;;;;;;18.62;65.08;101427.69;5095534;28;20939;-84
2022/06/09 11:33:45;;;;;;;6.65;2.33;;;;;;;18.51;64.07;101434.97;5087656;28;20066;-85
2022/06/09 11:36:35;;;;;;;7.32;2.53;;;;;;;18.86;67.24;101429.16;5073935;27;20315;-83
2022/06/09 11:39:27;;;;;;;5.38;2.30;;;;;;;18.98;61.22;101444.72;5087419;28;20572;-83
2022/06/09 11:42:01;;;;;;;9.57;2.70;;;;;;;18.86;62.53;101453.03;5087434;28;20036;-84
2022/06/09 11:44:32;;;;;;;9.10;2.60;;;;;;;18.87;62.21;101438.22;5087328;28;20403;-82
2022/06/09 11:47:03;;;;;;;7.05;2.50;;;;;;;18.69;62.16;101451.16;5094593;28;21400;-84